Time;durP1;ratioP1;P1;durP2;ratioP2;P2;SDS_P1;SDS_P2;PMS_P1;PMS_P2;Temp;Humidity;BMP_temperature;BMP_pressure;BME280_temperature;BME280_humidity;BME280_pressure;Samples;Min_cycle;Max_cycle;Signal;HPM_P1;HPM_P2
2021/07/31 00:01:53;;;;;;;19.50;16.55;;;;;;;18.96;76.59;98139.80;124646;1093;64386;-77
2021/07/31 00:04:20;;;;;;;18.20;15.37;;;;;;;19.00;76.75;98138.41;124813;1093;64248;-77
2021/07/31 00:06:48;;;;;;;19.53;16.83;;;;;;;18.99;77.06;98131.34;124777;1093;64277;-77
2021/07/31 00:09:15;;;;;;;19.73;16.30;;;;;;;18.97;77.81;98133.38;124804;1093;64290;-77
2021/07/31 00:11:42;;;;;;;22.10;15.83;;;;;;;18.96;77.79;98126.30;124792;1093;64305;-77
2021/07/31 00:14:09;;;;;;;16.47;14.87;;;;;;;18.98;78.61;98126.94;124792;1093;64275;-77
2021/07/31 00:16:36;;;;;;;17.83;14.73;;;;;;;19.00;78.85;98118.67;124814;1093;64290;-77
2021/07/31 00:19:03;;;;;;;17.23;14.50;;;;;;;19.07;78.44;98106.16;124817;1093;64279;-77
2021/07/31 00:21:30;;;;;;;16.87;14.67;;;;;;;19.12;78.38;98113.73;124794;1093;64290;-77
2021/07/31 00:23:58;;;;;;;19.93;14.50;;;;;;;19.14;78.26;98112.53;124768;1093;64393;-77
2021/07/31 00:26:25;;;;;;;17.03;14.37;;;;;;;19.13;78.52;98121.63;124789;1093;64293;-77
2021/07/31 00:28:52;;;;;;;15.17;13.57;;;;;;;19.12;78.82;98122.66;124783;1093;64326;-77
2021/07/31 00:31:20;;;;;;;17.50;14.47;;;;;;;19.09;78.45;98128.43;124854;1093;64393;-77
2021/07/31 00:33:47;;;;;;;15.40;13.80;;;;;;;19.05;78.65;98141.42;124777;1093;64274;-77
2021/07/31 00:36:14;;;;;;;17.20;14.30;;;;;;;18.93;78.43;98142.86;124763;1093;64289;-77
2021/07/31 00:38:41;;;;;;;16.97;14.73;;;;;;;18.85;78.28;98135.64;124773;1091;64375;-77
2021/07/31 00:41:09;;;;;;;18.17;16.23;;;;;;;18.83;79.13;98137.67;124652;1093;64293;-77
2021/07/31 00:43:36;;;;;;;17.27;15.30;;;;;;;18.77;78.95;98132.13;124790;1093;64302;-77
2021/07/31 00:46:03;;;;;;;17.47;15.50;;;;;;;18.75;79.16;98135.02;124833;1093;64274;-77
2021/07/31 00:48:30;;;;;;;21.27;16.20;;;;;;;18.74;79.74;98135.98;124631;1092;64395;-77
2021/07/31 00:50:57;;;;;;;16.90;15.17;;;;;;;18.69;79.46;98132.13;124863;1093;64343;-77
2021/07/31 00:53:24;;;;;;;17.17;14.07;;;;;;;18.65;79.92;98129.79;124790;1093;64363;-77
2021/07/31 00:55:54;;;;;;;16.80;14.53;;;;;;;18.68;80.22;98130.46;124798;1093;64403;-77
2021/07/31 00:58:21;;;;;;;;;;;;;;;18.73;80.66;98126.21;124853;1093;64274;-77
2021/07/31 01:00:48;;;;;;;16.50;14.00;;;;;;;18.76;80.16;98128.59;124734;1093;64277;-77
2021/07/31 01:03:16;;;;;;;16.30;14.70;;;;;;;18.79;80.07;98136.33;124678;1093;64332;-77
2021/07/31 01:05:43;;;;;;;16.00;14.33;;;;;;;18.81;80.37;98131.60;124682;1093;64326;-77
2021/07/31 01:08:11;;;;;;;16.93;13.90;;;;;;;18.82;80.62;98117.08;124795;1093;64274;-77
2021/07/31 01:10:38;;;;;;;15.27;13.27;;;;;;;18.92;81.00;98132.23;124699;1093;64271;-77
2021/07/31 01:13:06;;;;;;;14.57;13.07;;;;;;;18.94;80.50;98127.50;124644;1093;64399;-77
2021/07/31 01:15:33;;;;;;;16.33;12.97;;;;;;;18.97;80.62;98121.73;124813;1093;64207;-77
2021/07/31 01:18:00;;;;;;;15.20;12.57;;;;;;;18.98;80.50;98121.55;124670;1093;64277;-77
2021/07/31 01:20:28;;;;;;;14.53;13.10;;;;;;;19.01;80.83;98123.05;124722;1093;64274;-77
2021/07/31 01:22:55;;;;;;;13.00;11.67;;;;;;;19.04;81.03;98120.02;124661;1093;64248;-77
2021/07/31 01:25:23;;;;;;;13.70;12.40;;;;;;;19.05;80.87;98116.28;124679;1093;64293;-77
2021/07/31 01:27:50;;;;;;;13.90;12.53;;;;;;;19.06;80.90;98112.55;124677;1093;64280;-77
2021/07/31 01:30:17;;;;;;;12.90;11.60;;;;;;;19.08;80.69;98126.73;124686;1093;64275;-77
2021/07/31 01:32:44;;;;;;;14.17;12.47;;;;;;;19.12;80.56;98119.13;124672;1093;64294;-77
2021/07/31 01:35:11;;;;;;;14.97;12.13;;;;;;;19.13;80.58;98116.23;124654;1092;64255;-77
2021/07/31 01:37:38;;;;;;;14.60;12.80;;;;;;;19.13;80.84;98112.70;124797;1093;64273;-77
2021/07/31 01:40:06;;;;;;;15.17;12.43;;;;;;;19.14;80.99;98109.83;124700;1093;64294;-77
2021/07/31 01:42:33;;;;;;;14.27;12.40;;;;;;;19.15;80.66;98110.66;124743;1093;64246;-77
2021/07/31 01:45:00;;;;;;;15.57;11.87;;;;;;;19.13;80.63;98107.30;124658;1093;64290;-77
2021/07/31 01:47:28;;;;;;;12.63;11.50;;;;;;;19.07;80.74;98104.29;124676;1093;64274;-77
2021/07/31 01:49:55;;;;;;;13.73;11.83;;;;;;;19.01;80.90;98094.21;124654;1093;64278;-77
2021/07/31 01:52:22;;;;;;;13.33;12.03;;;;;;;18.96;80.99;98088.50;124681;1093;64277;-77
2021/07/31 01:54:49;;;;;;;13.10;11.57;;;;;;;18.95;81.06;98085.97;124683;1093;64271;-77
2021/07/31 01:57:16;;;;;;;14.17;11.73;;;;;;;18.90;80.61;98086.49;124628;1093;64284;-77
2021/07/31 01:59:43;;;;;;;13.07;11.67;;;;;;;18.85;81.12;98078.95;124660;1093;64299;-77
2021/07/31 02:02:11;;;;;;;13.17;11.20;;;;;;;18.83;81.27;98080.15;124640;1093;64403;-77
2021/07/31 02:04:38;;;;;;;13.37;11.83;;;;;;;18.81;80.73;98085.70;124704;1093;64290;-77
2021/07/31 02:07:05;;;;;;;14.83;12.03;;;;;;;18.81;80.85;98079.47;124676;1093;64370;-77
2021/07/31 02:09:32;;;;;;;12.85;11.55;;;;;;;18.82;80.93;98081.14;124683;1093;64275;-77
2021/07/31 02:11:59;;;;;;;13.43;12.03;;;;;;;18.79;80.90;98079.64;124655;1093;64271;-77
2021/07/31 02:14:34;;;;;;;14.27;12.10;;;;;;;18.78;80.88;98077.97;124614;1093;64274;-77
2021/07/31 02:17:02;;;;;;;15.33;11.97;;;;;;;18.75;80.91;98086.43;124804;1093;64347;-77
2021/07/31 02:19:30;;;;;;;13.43;12.03;;;;;;;18.73;81.13;98079.49;124730;1093;64294;-77
2021/07/31 02:21:58;;;;;;;14.77;12.27;;;;;;;18.69;80.85;98078.98;124714;1093;64373;-77
2021/07/31 02:24:26;;;;;;;14.63;12.67;;;;;;;18.67;81.02;98083.74;124871;1093;64274;-77
2021/07/31 02:26:53;;;;;;;17.77;12.83;;;;;;;18.64;80.78;98074.14;124685;1093;64319;-77
2021/07/31 02:29:20;;;;;;;14.85;12.65;;;;;;;18.64;80.93;98070.58;124666;1093;64407;-77
2021/07/31 02:31:47;;;;;;;16.77;12.23;;;;;;;18.65;81.44;98073.11;124767;1093;64722;-77
2021/07/31 02:34:14;;;;;;;16.50;13.20;;;;;;;18.68;81.31;98073.78;124669;1093;64217;-77
2021/07/31 02:36:41;;;;;;;17.17;13.27;;;;;;;18.67;81.17;98074.78;124648;1093;64278;-77
2021/07/31 02:39:08;;;;;;;15.90;13.00;;;;;;;18.64;80.86;98071.44;124657;1093;64415;-77
2021/07/31 02:41:35;;;;;;;16.77;12.73;;;;;;;18.64;80.88;98070.58;124668;1093;64377;-77
2021/07/31 02:44:03;;;;;;;15.77;11.90;;;;;;;18.62;81.26;98080.73;124788;1093;64296;-77
2021/07/31 02:46:30;;;;;;;15.23;12.33;;;;;;;18.59;81.32;98076.53;124797;1093;64294;-77
2021/07/31 02:48:57;;;;;;;17.73;12.90;;;;;;;18.56;80.94;98086.81;124679;1093;64274;-77
2021/07/31 02:51:24;;;;;;;15.00;12.43;;;;;;;18.55;81.10;98085.14;124634;1093;64385;-77
2021/07/31 02:53:51;;;;;;;14.37;12.13;;;;;;;18.52;81.50;98075.54;124685;1093;64239;-77
2021/07/31 02:56:18;;;;;;;16.17;12.10;;;;;;;18.50;81.18;98082.96;124676;1093;64274;-76
2021/07/31 02:58:45;;;;;;;17.53;12.70;;;;;;;18.53;81.57;98082.61;124684;1093;64264;-76
2021/07/31 03:01:13;;;;;;;16.40;12.27;;;;;;;18.49;81.40;98077.77;124646;1093;64380;-76
2021/07/31 03:03:41;;;;;;;17.50;12.95;;;;;;;18.49;81.33;98083.16;124649;1093;64295;-76
2021/07/31 03:06:08;;;;;;;16.43;13.17;;;;;;;18.52;81.48;98085.50;124677;1093;64326;-76
2021/07/31 03:08:35;;;;;;;15.20;12.43;;;;;;;18.49;81.52;98081.30;124639;1093;64316;-76
2021/07/31 03:11:05;;;;;;;15.77;12.57;;;;;;;18.49;81.49;98092.09;124701;1093;64274;-76
2021/07/31 03:13:32;;;;;;;19.45;12.95;;;;;;;18.49;81.70;98104.73;124806;1093;64276;-76
2021/07/31 03:16:00;;;;;;;15.33;12.30;;;;;;;18.47;81.35;98091.41;124804;1093;64197;-76
2021/07/31 03:18:27;;;;;;;14.20;12.03;;;;;;;18.57;81.92;98091.21;124716;1093;64316;-76
2021/07/31 03:20:55;;;;;;;17.60;12.65;;;;;;;18.59;81.65;98091.88;124690;1093;64286;-76
2021/07/31 03:23:24;;;;;;;17.67;13.10;;;;;;;18.64;82.00;98087.63;124710;1093;64271;-76
2021/07/31 03:25:58;;;;;;;16.40;12.53;;;;;;;18.65;81.68;98093.87;124722;1093;64274;-76
2021/07/31 03:28:27;;;;;;;16.50;12.63;;;;;;;18.68;81.79;98092.67;124668;1093;64302;-76
2021/07/31 03:30:55;;;;;;;14.15;12.50;;;;;;;18.72;81.81;98094.85;124669;1093;64198;-76
2021/07/31 03:33:23;;;;;;;15.53;13.23;;;;;;;18.78;82.01;98101.43;124858;1093;64287;-77
2021/07/31 03:35:53;;;;;;;14.67;12.90;;;;;;;18.86;82.14;98096.81;124672;1093;64277;-76
2021/07/31 03:38:21;;;;;;;16.70;13.83;;;;;;;18.98;82.13;98107.20;124682;1093;64191;-76
2021/07/31 03:40:48;;;;;;;15.57;12.57;;;;;;;19.07;81.65;98101.59;124675;1093;64313;-76
2021/07/31 03:43:15;;;;;;;16.37;12.60;;;;;;;19.10;81.54;98099.55;124671;1093;64287;-76
2021/07/31 03:45:42;;;;;;;16.80;12.57;;;;;;;19.18;81.89;98105.73;124723;1093;64699;-76
2021/07/31 03:48:09;;;;;;;15.90;13.00;;;;;;;19.32;81.24;98093.30;124753;1093;64338;-76
2021/07/31 03:50:40;;;;;;;14.90;11.97;;;;;;;19.52;81.38;98090.96;124843;1093;64299;-76
2021/07/31 03:53:08;;;;;;;15.67;12.97;;;;;;;19.59;81.14;98085.65;124656;1093;64881;-76
2021/07/31 03:55:35;;;;;;;16.43;12.30;;;;;;;19.64;80.95;98078.70;124790;1093;64391;-76
2021/07/31 03:58:03;;;;;;;15.10;13.50;;;;;;;19.68;81.20;98085.44;124680;1093;64271;-76
2021/07/31 04:00:30;;;;;;;16.70;13.93;;;;;;;19.76;81.11;98084.52;124671;1093;64280;-76
2021/07/31 04:02:58;;;;;;;17.10;13.45;;;;;;;19.83;80.71;98082.77;124808;1092;64744;-76
2021/07/31 04:05:25;;;;;;;18.73;14.70;;;;;;;20.06;80.58;98079.98;124708;1093;64386;-76
2021/07/31 04:07:52;;;;;;;17.37;15.03;;;;;;;20.35;80.35;98078.30;124726;1092;64335;-76
2021/07/31 04:10:19;;;;;;;16.03;14.37;;;;;;;20.68;79.73;98080.66;124711;1093;64275;-76
2021/07/31 04:12:46;;;;;;;15.70;14.10;;;;;;;20.81;79.19;98086.22;124671;1093;64294;-76
2021/07/31 04:15:13;;;;;;;17.73;15.50;;;;;;;20.88;79.15;98092.56;124620;1093;64274;-76
2021/07/31 04:17:40;;;;;;;18.67;15.60;;;;;;;20.87;78.75;98100.87;124644;1093;64524;-76
2021/07/31 04:20:09;;;;;;;16.67;14.93;;;;;;;20.99;78.71;98102.06;124676;1094;64426;-76
2021/07/31 04:22:36;;;;;;;17.97;15.83;;;;;;;21.05;78.60;98106.70;124788;1094;64297;-76
2021/07/31 04:25:03;;;;;;;16.13;14.00;;;;;;;21.08;78.09;98113.61;124671;1093;64775;-76
2021/07/31 04:27:33;;;;;;;18.33;14.70;;;;;;;21.03;78.12;98116.89;124803;1093;64590;-77
2021/07/31 04:30:00;;;;;;;14.55;12.93;;;;;;;20.99;78.41;98119.15;124711;1093;64194;-77
2021/07/31 04:32:28;;;;;;;16.27;14.30;;;;;;;20.98;78.23;98119.33;124857;1093;64248;-76
2021/07/31 04:34:55;;;;;;;14.20;12.65;;;;;;;21.00;78.45;98125.40;124728;1093;64271;-76
2021/07/31 04:37:22;;;;;;;14.87;13.37;;;;;;;21.00;78.61;98114.56;124738;1093;64316;-76
2021/07/31 04:39:49;;;;;;;14.75;13.25;;;;;;;21.06;78.63;98119.21;124699;1093;64287;-76
2021/07/31 04:42:17;;;;;;;12.73;11.43;;;;;;;21.08;78.08;98105.48;124680;1093;64405;-76
2021/07/31 04:44:44;;;;;;;14.00;11.63;;;;;;;21.13;78.46;98106.58;124676;1093;64392;-76
2021/07/31 04:47:11;;;;;;;13.95;12.35;;;;;;;21.21;78.25;98117.30;124663;1093;64261;-76
2021/07/31 04:49:38;;;;;;;12.73;10.60;;;;;;;21.29;78.39;98110.92;124653;1093;64294;-76
2021/07/31 04:52:08;;;;;;;12.70;11.40;;;;;;;21.33;78.04;98117.64;124813;1093;64383;-76
2021/07/31 04:54:41;;;;;;;15.65;12.60;;;;;;;21.36;78.15;98111.84;124700;1093;64296;-76
2021/07/31 04:57:11;;;;;;;14.40;12.57;;;;;;;21.44;78.04;98113.61;124867;1093;64731;-76
2021/07/31 04:59:38;;;;;;;15.13;13.63;;;;;;;21.44;77.46;98109.02;124658;1093;64783;-76
2021/07/31 05:02:06;;;;;;;16.57;13.17;;;;;;;21.48;77.54;98110.33;124675;1093;64252;-76
2021/07/31 05:04:33;;;;;;;14.40;12.40;;;;;;;21.45;76.85;98124.25;124689;1093;64300;-76
2021/07/31 05:07:00;;;;;;;13.23;11.80;;;;;;;21.32;76.97;98118.66;124698;1092;64316;-76
2021/07/31 05:09:27;;;;;;;12.50;11.20;;;;;;;21.26;77.29;98133.83;124684;1093;64303;-76
2021/07/31 05:11:54;;;;;;;13.87;11.77;;;;;;;21.24;77.25;98135.88;124675;1093;64299;-76
2021/07/31 05:14:21;;;;;;;13.23;11.93;;;;;;;21.21;77.19;98144.39;124655;1093;64239;-76
2021/07/31 05:16:48;;;;;;;12.90;11.50;;;;;;;21.21;77.59;98148.98;124712;1093;64389;-76
2021/07/31 05:19:15;;;;;;;12.27;10.90;;;;;;;21.17;77.32;98148.53;124623;1093;64290;-76
2021/07/31 05:21:43;;;;;;;12.13;10.93;;;;;;;21.15;77.40;98152.47;124753;1093;64347;-76
2021/07/31 05:24:11;;;;;;;13.47;10.57;;;;;;;21.14;77.93;98159.73;124671;1093;64296;-77
2021/07/31 05:26:39;;;;;;;12.60;10.60;;;;;;;21.16;77.91;98164.97;124815;1093;64264;-77
2021/07/31 05:29:07;;;;;;;12.43;9.87;;;;;;;21.14;78.02;98165.15;124864;1093;64389;-77
2021/07/31 05:31:34;;;;;;;11.63;10.43;;;;;;;21.25;78.00;98170.09;124728;1093;64322;-77
2021/07/31 05:34:02;;;;;;;11.73;10.50;;;;;;;21.36;78.29;98166.05;124653;1092;64348;-77
2021/07/31 05:36:34;;;;;;;12.07;10.97;;;;;;;21.35;77.89;98177.90;124696;1093;64271;-77
2021/07/31 05:39:03;;;;;;;11.63;10.37;;;;;;;21.30;77.71;98177.66;124722;1093;64319;-78
2021/07/31 05:41:30;;;;;;;12.45;10.80;;;;;;;21.27;77.36;98172.59;124739;1093;64319;-77
2021/07/31 05:43:57;;;;;;;12.93;10.10;;;;;;;21.32;77.11;98175.58;124711;1093;64319;-77
2021/07/31 05:46:24;;;;;;;10.70;9.70;;;;;;;21.41;77.10;98152.79;124709;1093;64380;-77
2021/07/31 05:48:52;;;;;;;13.25;10.05;;;;;;;21.57;76.94;98170.67;124713;1092;64293;-77
2021/07/31 05:51:19;;;;;;;10.33;9.27;;;;;;;21.67;76.27;98164.94;124682;1093;64293;-77
2021/07/31 05:53:47;;;;;;;10.07;9.17;;;;;;;21.75;75.61;98156.67;124757;1093;64251;-77
2021/07/31 05:56:15;;;;;;;9.17;8.27;;;;;;;21.84;75.22;98152.77;124638;1093;64563;-77
2021/07/31 05:58:43;;;;;;;8.80;8.00;;;;;;;21.95;74.42;98164.13;124791;1093;64217;-77
2021/07/31 06:01:10;;;;;;;8.60;7.70;;;;;;;22.04;74.34;98160.26;124680;1093;64282;-77
2021/07/31 06:03:38;;;;;;;8.53;7.73;;;;;;;22.17;73.96;98160.36;124669;1093;64283;-77
2021/07/31 06:06:06;;;;;;;7.50;6.83;;;;;;;22.28;73.91;98165.27;124625;1093;64349;-77
2021/07/31 06:08:33;;;;;;;8.00;7.20;;;;;;;22.38;73.57;98166.77;124747;1093;64267;-77
2021/07/31 06:11:05;;;;;;;8.27;7.57;;;;;;;22.50;73.10;98173.34;124664;1093;64280;-77
2021/07/31 06:13:33;;;;;;;8.70;6.95;;;;;;;22.60;72.82;98167.56;124848;1093;64290;-78
2021/07/31 06:16:00;;;;;;;8.57;7.50;;;;;;;22.65;72.69;98179.50;124706;1093;64220;-77
2021/07/31 06:18:27;;;;;;;7.63;6.80;;;;;;;22.72;72.38;98174.95;124787;1093;64226;-78
2021/07/31 06:20:54;;;;;;;7.50;6.80;;;;;;;22.79;72.32;98167.66;124656;1093;64370;-77
2021/07/31 06:23:22;;;;;;;7.50;6.80;;;;;;;22.88;72.06;98173.78;124783;1093;64290;-77
2021/07/31 06:25:49;;;;;;;7.63;6.40;;;;;;;22.97;71.72;98169.87;124728;1093;64288;-76
2021/07/31 06:28:16;;;;;;;9.17;7.17;;;;;;;23.03;71.55;98167.38;124780;1093;64271;-76
2021/07/31 06:30:44;;;;;;;7.30;6.70;;;;;;;23.04;71.44;98171.77;124700;1093;64248;-76
2021/07/31 06:33:12;;;;;;;10.50;7.30;;;;;;;23.03;71.31;98175.53;124883;1093;64319;-76
2021/07/31 06:35:40;;;;;;;7.03;6.20;;;;;;;23.07;70.96;98176.82;124720;1093;64842;-76
2021/07/31 06:38:07;;;;;;;8.67;7.10;;;;;;;23.11;71.54;98183.51;124814;1093;64191;-76
2021/07/31 06:40:35;;;;;;;9.53;7.17;;;;;;;23.16;71.41;98178.30;124665;1093;64271;-76
2021/07/31 06:43:02;;;;;;;8.40;7.60;;;;;;;23.22;71.46;98166.61;124795;1091;64300;-76
2021/07/31 06:45:30;;;;;;;8.45;7.10;;;;;;;23.29;71.22;98180.23;124661;1093;64269;-76
2021/07/31 06:47:58;;;;;;;10.00;7.27;;;;;;;23.41;71.52;98176.72;124774;1093;64276;-76
2021/07/31 06:50:25;;;;;;;7.35;6.65;;;;;;;23.56;71.03;98172.98;124636;1093;64393;-76
2021/07/31 06:52:52;;;;;;;9.43;6.57;;;;;;;23.66;70.88;98184.30;124852;1092;64247;-76
2021/07/31 06:55:19;;;;;;;7.90;6.43;;;;;;;23.77;70.74;98182.88;124696;1093;64274;-76
2021/07/31 06:57:46;;;;;;;8.37;7.40;;;;;;;23.88;70.32;98193.15;124792;1092;64324;-76
2021/07/31 07:00:14;;;;;;;7.60;6.90;;;;;;;23.96;70.39;98194.83;124736;1093;64724;-76
2021/07/31 07:02:41;;;;;;;7.27;6.57;;;;;;;24.06;70.22;98200.70;124818;1093;64277;-76
2021/07/31 07:05:09;;;;;;;8.50;7.30;;;;;;;24.06;69.82;98192.54;124686;1093;64281;-76
2021/07/31 07:07:37;;;;;;;7.35;6.60;;;;;;;24.07;69.87;98203.23;124798;1093;64244;-76
2021/07/31 07:10:05;;;;;;;7.83;6.50;;;;;;;24.11;69.70;98209.09;124645;1092;64307;-76
2021/07/31 07:12:32;;;;;;;7.53;6.83;;;;;;;24.16;69.83;98213.91;124869;1093;64422;-76
2021/07/31 07:15:00;;;;;;;7.90;7.20;;;;;;;24.23;69.66;98212.03;124687;1093;64300;-76
2021/07/31 07:17:27;;;;;;;9.83;7.10;;;;;;;24.28;69.33;98214.97;124767;1093;64343;-76
2021/07/31 07:19:54;;;;;;;7.70;7.00;;;;;;;24.31;69.46;98222.72;124661;1093;64271;-76
2021/07/31 07:22:21;;;;;;;7.80;7.03;;;;;;;24.38;69.22;98220.84;124797;1093;64300;-76
2021/07/31 07:24:48;;;;;;;8.07;7.33;;;;;;;24.36;68.66;98227.55;124639;1093;64355;-76
2021/07/31 07:27:16;;;;;;;7.57;6.87;;;;;;;24.34;68.75;98235.91;124780;1093;64274;-76
2021/07/31 07:29:44;;;;;;;7.90;7.13;;;;;;;24.40;68.36;98236.95;124661;1093;64274;-76
2021/07/31 07:32:11;;;;;;;7.83;7.03;;;;;;;24.36;68.29;98247.44;124779;1093;64287;-76
2021/07/31 07:34:39;;;;;;;7.10;6.50;;;;;;;24.41;67.80;98246.78;124664;1093;64303;-77
2021/07/31 07:37:06;;;;;;;9.20;7.50;;;;;;;24.50;68.37;98240.95;124790;1093;64252;-76
2021/07/31 07:39:33;;;;;;;7.60;6.80;;;;;;;24.66;68.16;98239.69;124688;1093;64294;-76
2021/07/31 07:42:04;;;;;;;10.45;7.00;;;;;;;24.75;68.03;98248.50;124886;1093;64667;-76
2021/07/31 07:44:33;;;;;;;8.63;7.83;;;;;;;24.78;68.36;98252.66;124697;1093;64328;-76
2021/07/31 07:47:00;;;;;;;7.60;6.90;;;;;;;24.80;67.94;98259.56;124827;1093;64278;-76
2021/07/31 07:49:27;;;;;;;8.00;7.30;;;;;;;24.77;67.94;98257.27;124647;1093;64366;-76
2021/07/31 07:51:54;;;;;;;8.97;7.13;;;;;;;24.77;68.21;98264.62;124779;1093;64294;-76
2021/07/31 07:54:22;;;;;;;8.07;7.47;;;;;;;24.76;68.24;98266.51;124614;1093;64290;-76
2021/07/31 07:56:49;;;;;;;7.63;6.93;;;;;;;24.71;68.21;98274.48;124778;1093;64290;-78
2021/07/31 07:59:16;;;;;;;8.03;7.03;;;;;;;24.68;68.33;98275.73;124607;1093;64274;-77
2021/07/31 08:01:43;;;;;;;7.43;6.73;;;;;;;24.63;68.37;98277.42;124770;1093;64463;-77
2021/07/31 08:04:10;;;;;;;7.50;6.87;;;;;;;24.59;68.40;98285.16;124671;1093;64294;-77
2021/07/31 08:06:38;;;;;;;7.20;6.60;;;;;;;24.55;68.87;98289.37;124823;1091;64386;-77
2021/07/31 08:09:05;;;;;;;7.67;6.90;;;;;;;24.53;69.20;98296.91;124624;1092;64294;-77
2021/07/31 08:11:33;;;;;;;7.57;6.87;;;;;;;24.46;69.20;98293.33;124814;1092;64275;-77
2021/07/31 08:14:01;;;;;;;7.47;6.77;;;;;;;24.36;69.35;98293.73;124709;1093;64278;-77
2021/07/31 08:16:28;;;;;;;8.77;6.17;;;;;;;24.30;69.75;98283.66;124865;1093;64274;-77
2021/07/31 08:19:17;;;;;;;6.93;6.37;;;;;;;24.28;69.76;98299.39;124664;1093;64183;-77
2021/07/31 08:21:44;;;;;;;7.65;6.98;;;;;;;24.26;69.95;98287.86;124648;1093;64277;-77
2021/07/31 08:24:11;;;;;;;9.63;6.63;;;;;;;24.25;70.22;98292.47;124673;1093;64293;-77
2021/07/31 08:26:39;;;;;;;6.07;5.57;;;;;;;24.24;70.48;98288.05;124820;1093;64248;-77
2021/07/31 08:29:06;;;;;;;7.87;6.10;;;;;;;24.25;70.33;98281.58;124673;1093;64198;-77
2021/07/31 08:31:33;;;;;;;6.20;5.70;;;;;;;24.30;70.76;98278.20;124714;1093;64404;-77
2021/07/31 08:34:00;;;;;;;6.43;5.63;;;;;;;24.39;70.50;98273.42;124669;1093;64313;-77
2021/07/31 08:36:27;;;;;;;6.00;5.60;;;;;;;24.40;70.53;98278.64;124770;1093;64243;-77
2021/07/31 08:38:54;;;;;;;6.40;5.83;;;;;;;24.44;70.64;98277.22;124640;1093;64306;-77
2021/07/31 08:41:21;;;;;;;6.20;5.53;;;;;;;24.53;70.58;98272.39;124792;1093;64644;-77
2021/07/31 08:43:49;;;;;;;6.20;5.70;;;;;;;24.61;70.48;98274.89;124654;1093;64226;-77
2021/07/31 08:46:17;;;;;;;5.80;5.30;;;;;;;24.61;70.42;98288.52;124802;1093;64344;-77
2021/07/31 08:48:46;;;;;;;5.63;5.13;;;;;;;24.45;69.93;98292.50;124645;1093;64309;-77
2021/07/31 08:51:15;;;;;;;6.55;6.03;;;;;;;24.25;70.79;98292.47;124794;1093;64271;-77
2021/07/31 08:53:44;;;;;;;5.93;5.43;;;;;;;24.42;71.05;98282.00;124747;1093;64293;-77
2021/07/31 08:56:12;;;;;;;6.10;5.50;;;;;;;24.68;70.79;98273.02;124913;1092;64284;-77
2021/07/31 08:58:40;;;;;;;5.10;4.70;;;;;;;24.94;69.89;98276.77;124715;1092;64223;-77
2021/07/31 09:01:08;;;;;;;5.67;5.10;;;;;;;25.17;69.98;98270.84;124718;1093;64357;-77
2021/07/31 09:03:51;;;;;;;6.05;5.55;;;;;;;25.40;69.42;98271.19;124704;1093;64248;-77
2021/07/31 09:06:29;;;;;;;5.73;5.23;;;;;;;25.68;68.47;98263.73;124721;1093;64277;-77
2021/07/31 09:08:58;;;;;;;5.73;5.23;;;;;;;25.89;68.25;98257.98;124740;1093;64216;-77
2021/07/31 09:11:29;;;;;;;5.77;5.20;;;;;;;26.18;67.91;98261.16;124683;1093;64248;-77
2021/07/31 09:14:12;;;;;;;5.40;4.90;;;;;;;26.45;66.91;98250.84;124768;1093;64431;-75
2021/07/31 09:16:41;;;;;;;5.63;5.20;;;;;;;26.68;66.61;98248.36;124670;1093;64437;-76
2021/07/31 09:19:14;;;;;;;5.63;5.08;;;;;;;26.87;66.16;98243.75;124690;1093;64441;-76
2021/07/31 09:21:43;;;;;;;5.30;4.90;;;;;;;26.97;65.13;98240.50;124855;1093;64290;-76
2021/07/31 09:24:28;;;;;;;4.90;4.50;;;;;;;27.06;64.64;98238.30;124693;1093;64590;-76
2021/07/31 09:26:56;;;;;;;5.50;5.00;;;;;;;27.11;64.13;98231.08;124770;1093;64335;-76
2021/07/31 09:29:27;;;;;;;5.50;5.00;;;;;;;27.27;63.86;98226.92;124686;1092;64283;-76
2021/07/31 09:31:57;;;;;;;5.13;4.67;;;;;;;27.33;63.07;98217.81;124784;1093;64225;-77
2021/07/31 09:34:30;;;;;;;5.20;4.87;;;;;;;27.34;63.43;98210.44;124699;1093;64294;-77
2021/07/31 09:37:25;;;;;;;6.03;5.53;;;;;;;27.38;63.07;98206.16;124833;1093;64293;-77
2021/07/31 09:40:00;;;;;;;5.20;4.80;;;;;;;27.26;62.40;98194.34;124566;1093;64364;-76
2021/07/31 09:42:39;;;;;;;5.00;4.60;;;;;;;27.14;61.49;98186.84;124803;1093;64313;-76
2021/07/31 09:45:12;;;;;;;5.43;5.00;;;;;;;27.11;62.20;98184.58;124738;1093;64329;-76
2021/07/31 09:48:01;;;;;;;5.33;4.90;;;;;;;27.27;61.41;98185.05;124830;1093;64283;-76
2021/07/31 09:50:39;;;;;;;5.10;4.67;;;;;;;27.32;61.01;98177.81;124731;1093;64271;-76
2021/07/31 09:53:11;;;;;;;5.37;4.97;;;;;;;27.49;61.64;98185.38;124803;1093;64364;-76
2021/07/31 09:55:45;;;;;;;6.07;5.57;;;;;;;27.60;60.58;98173.66;124765;1093;64255;-76
2021/07/31 09:58:15;;;;;;;5.60;5.20;;;;;;;27.67;61.02;98177.13;124679;1093;64312;-76
2021/07/31 10:00:43;;;;;;;;;;;;;;;27.93;59.83;98172.35;124887;1093;64194;-76
2021/07/31 10:03:12;;;;;;;5.80;5.20;;;;;;;27.94;59.84;98174.04;124803;1093;64278;-76
2021/07/31 10:05:42;;;;;;;5.35;5.05;;;;;;;28.06;59.05;98180.35;124714;1093;64305;-77
2021/07/31 10:08:13;;;;;;;;;;;;;;;27.99;57.74;98182.39;124731;1093;64336;-77
2021/07/31 10:10:40;;;;;;;5.03;4.63;;;;;;;28.03;57.26;98186.31;124783;1093;64213;-77
2021/07/31 10:13:07;;;;;;;5.30;4.80;;;;;;;28.15;57.63;98191.83;124682;1093;64181;-76
2021/07/31 10:15:35;;;;;;;4.50;4.20;;;;;;;28.31;57.70;98195.78;124605;1093;64248;-76
2021/07/31 10:18:11;;;;;;;4.70;4.40;;;;;;;28.51;56.96;98188.05;124743;1093;64300;-77
2021/07/31 10:20:40;;;;;;;4.17;3.97;;;;;;;28.64;56.43;98182.33;124729;1093;64290;-76
2021/07/31 10:23:07;;;;;;;3.90;3.65;;;;;;;28.80;56.16;98188.16;124824;1093;64663;-82
2021/07/31 10:25:35;;;;;;;4.90;4.60;;;;;;;28.86;55.47;98182.56;124759;1093;64284;-82
2021/07/31 10:28:25;;;;;;;4.03;3.73;;;;;;;28.88;55.40;98188.64;124905;1093;64194;-81
2021/07/31 10:30:53;;;;;;;4.57;4.27;;;;;;;29.03;55.65;98187.30;124705;1093;64254;-82
2021/07/31 10:33:44;;;;;;;4.10;3.80;;;;;;;29.20;55.41;98184.65;124848;1093;64440;-83
2021/07/31 10:36:40;;;;;;;4.40;4.07;;;;;;;29.19;54.34;98180.25;124956;1093;64216;-82
2021/07/31 10:39:25;;;;;;;4.33;4.03;;;;;;;29.13;54.21;98183.97;124766;1092;64200;-82
2021/07/31 10:41:56;;;;;;;4.63;4.20;;;;;;;29.09;53.79;98183.61;124902;1093;64319;-82
2021/07/31 10:44:25;;;;;;;5.20;4.80;;;;;;;29.13;54.01;98176.57;124835;1093;65489;-82
2021/07/31 10:47:21;;;;;;;4.73;4.30;;;;;;;29.19;54.01;98172.84;124734;1093;64270;-81
2021/07/31 10:49:48;;;;;;;4.20;3.90;;;;;;;29.07;53.73;98181.13;124914;1093;64756;-82
2021/07/31 10:52:51;;;;;;;4.90;4.40;;;;;;;29.07;53.54;98172.89;124770;1093;64284;-82
2021/07/31 10:55:20;;;;;;;4.85;4.45;;;;;;;29.15;53.76;98173.56;124858;1093;64373;-82
2021/07/31 10:57:53;;;;;;;4.78;4.38;;;;;;;29.19;53.79;98170.10;124747;1093;64407;-82
2021/07/31 11:00:45;;;;;;;5.17;4.77;;;;;;;29.36;53.76;98174.81;124923;1092;64290;-81
2021/07/31 11:03:20;;;;;;;5.97;4.97;;;;;;;29.56;54.36;98166.15;124678;1093;64242;-82
2021/07/31 11:06:05;;;;;;;5.17;4.67;;;;;;;29.66;53.63;98169.13;124778;1093;64303;-81
2021/07/31 11:08:35;;;;;;;4.97;4.47;;;;;;;29.60;52.84;98173.66;124772;1093;64271;-82
2021/07/31 11:11:14;;;;;;;4.93;4.63;;;;;;;29.67;53.64;98173.52;124777;1093;64396;-82
2021/07/31 11:13:41;;;;;;;;;;;;;;;29.80;52.99;98166.89;124746;1093;64208;-81
2021/07/31 11:16:10;;;;;;;5.70;5.30;;;;;;;29.94;53.24;98169.09;124824;1093;64297;-82
2021/07/31 11:18:47;;;;;;;5.65;5.25;;;;;;;30.11;52.74;98169.09;124851;1093;64267;-82
2021/07/31 11:21:29;;;;;;;5.40;5.00;;;;;;;30.34;52.72;98170.05;124854;1093;64297;-82
2021/07/31 11:24:06;;;;;;;5.20;4.90;;;;;;;30.55;52.49;98174.77;124706;1093;64299;-82
2021/07/31 11:26:53;;;;;;;6.10;5.53;;;;;;;30.65;51.55;98168.59;124857;1093;64280;-83